createdAt,value
2023-05-24T00:00:00.359Z,7.02
2023-05-24T00:02:27.159Z,7.02
2023-05-24T00:04:54.378Z,7.03
2023-05-24T00:07:21.011Z,6.98
2023-05-24T00:09:47.750Z,6.95
2023-05-24T00:12:14.233Z,6.92
2023-05-24T00:14:41.215Z,6.95
2023-05-24T00:17:07.770Z,6.94
2023-05-24T00:19:38.226Z,7.05
2023-05-24T00:22:04.937Z,7.09
2023-05-24T00:24:31.474Z,7.07
2023-05-24T00:26:58.255Z,7.09
2023-05-24T00:29:24.714Z,7.06
2023-05-24T00:31:51.636Z,6.91
2023-05-24T00:34:18.044Z,6.93
2023-05-24T00:36:44.946Z,6.83
2023-05-24T00:39:11.601Z,6.75
2023-05-24T00:41:38.561Z,6.75
2023-05-24T00:44:04.998Z,6.63
2023-05-24T00:46:34.383Z,6.48
2023-05-24T00:49:01.823Z,6.41
2023-05-24T00:51:28.632Z,6.31
2023-05-24T00:53:56.301Z,6.27
2023-05-24T00:56:23.289Z,6.22
2023-05-24T00:58:54.433Z,6.05
2023-05-24T01:01:20.917Z,6.03
2023-05-24T01:03:48.405Z,6.03
2023-05-24T01:06:16.334Z,5.97
2023-05-24T01:08:54.300Z,5.99
2023-05-24T01:11:50.129Z,5.92
2023-05-24T01:14:21.486Z,5.90
2023-05-24T01:16:48.268Z,5.83
2023-05-24T01:19:43.694Z,5.72
2023-05-24T01:22:41.100Z,5.58
2023-05-24T01:25:19.500Z,5.60
2023-05-24T01:27:48.038Z,5.54
2023-05-24T01:30:15.523Z,5.51
2023-05-24T01:32:42.245Z,5.50
2023-05-24T01:35:09.286Z,5.44
2023-05-24T01:37:36.015Z,5.44
2023-05-24T01:40:04.342Z,5.37
2023-05-24T01:42:41.299Z,5.34
2023-05-24T01:45:27.744Z,5.25
2023-05-24T01:48:26.746Z,5.21
2023-05-24T01:50:57.759Z,5.17
2023-05-24T01:53:32.176Z,5.11
2023-05-24T01:56:01.681Z,5.04
2023-05-24T01:58:30.315Z,4.79
2023-05-24T02:00:58.106Z,4.79
2023-05-24T02:03:24.655Z,4.79
2023-05-24T02:05:51.286Z,4.74
2023-05-24T02:08:17.723Z,4.71
2023-05-24T02:10:44.427Z,4.66
2023-05-24T02:13:11.450Z,4.65
2023-05-24T02:15:37.898Z,4.59
2023-05-24T02:18:08.250Z,4.49
2023-05-24T02:20:38.003Z,4.50
2023-05-24T02:23:04.883Z,4.44
2023-05-24T02:25:32.728Z,4.53
2023-05-24T02:28:00.052Z,4.44
2023-05-24T02:30:26.888Z,4.37
2023-05-24T02:32:53.445Z,4.31
2023-05-24T02:35:20.957Z,4.18
2023-05-24T02:37:47.782Z,4.13
2023-05-24T02:40:14.314Z,4.12
2023-05-24T02:42:41.338Z,4.06
2023-05-24T02:45:08.219Z,4.02
2023-05-24T02:47:34.942Z,4.03
2023-05-24T02:50:01.397Z,4.09
2023-05-24T02:52:27.871Z,4.11
2023-05-24T02:54:54.301Z,4.05
2023-05-24T02:57:21.223Z,4.06
2023-05-24T02:59:47.665Z,4.05
2023-05-24T03:02:14.785Z,4.03
2023-05-24T03:04:41.208Z,3.99
2023-05-24T03:07:07.751Z,3.93
2023-05-24T03:09:34.551Z,3.82
2023-05-24T03:12:01.700Z,3.79
2023-05-24T03:14:28.195Z,3.74
2023-05-24T03:16:54.664Z,3.72
2023-05-24T03:19:21.216Z,3.71
2023-05-24T03:21:48.069Z,3.62
2023-05-24T03:24:14.760Z,3.65
2023-05-24T03:26:41.363Z,3.58
2023-05-24T03:29:07.900Z,3.54
2023-05-24T03:31:34.878Z,3.56
2023-05-24T03:34:01.342Z,3.61
2023-05-24T03:36:29.095Z,3.58
2023-05-24T03:38:58.083Z,3.48
2023-05-24T03:41:25.049Z,3.41
2023-05-24T03:43:52.536Z,3.41
2023-05-24T03:46:19.131Z,3.40
2023-05-24T03:48:45.781Z,3.44
2023-05-24T03:51:12.754Z,3.46
2023-05-24T03:53:39.350Z,3.50
2023-05-24T03:56:06.358Z,3.63
2023-05-24T03:58:33.283Z,3.68
2023-05-24T04:01:00.149Z,3.61
2023-05-24T04:03:27.416Z,3.57
2023-05-24T04:05:54.120Z,3.62
2023-05-24T04:08:20.696Z,3.61
2023-05-24T04:10:47.150Z,3.69
2023-05-24T04:13:14.150Z,3.67
2023-05-24T04:15:40.768Z,3.73
2023-05-24T04:18:07.956Z,3.78
2023-05-24T04:20:34.495Z,3.81
2023-05-24T04:23:01.091Z,3.80
2023-05-24T04:25:29.576Z,3.77
2023-05-24T04:27:57.412Z,3.86
2023-05-24T04:30:23.901Z,3.97
2023-05-24T04:32:51.237Z,4.29
2023-05-24T04:35:18.223Z,4.74
2023-05-24T04:37:48.260Z,5.08
2023-05-24T04:40:14.959Z,5.05
2023-05-24T04:42:41.423Z,5.16
2023-05-24T04:45:08.751Z,5.70
2023-05-24T04:47:35.822Z,6.94
2023-05-24T04:50:02.308Z,9.10
2023-05-24T04:52:30.441Z,11.41
2023-05-24T04:54:58.005Z,13.19
2023-05-24T04:57:24.443Z,14.22
2023-05-24T04:59:50.955Z,14.49
2023-05-24T05:02:17.468Z,15.21
2023-05-24T05:04:43.939Z,15.28
2023-05-24T05:07:10.386Z,14.98
2023-05-24T05:09:36.928Z,15.87
2023-05-24T05:12:03.454Z,15.93
2023-05-24T05:14:30.430Z,15.25
2023-05-24T05:16:57.921Z,13.32
2023-05-24T05:19:24.396Z,11.46
2023-05-24T05:21:52.054Z,10.34
2023-05-24T05:24:19.078Z,9.44
2023-05-24T05:26:45.652Z,9.01
2023-05-24T05:29:12.263Z,8.70
2023-05-24T05:31:39.628Z,8.49
2023-05-24T05:34:09.667Z,8.47
2023-05-24T05:36:41.071Z,8.39
2023-05-24T05:39:11.375Z,8.44
2023-05-24T05:41:45.974Z,8.28
2023-05-24T05:44:13.697Z,8.07
2023-05-24T05:46:41.481Z,7.99
2023-05-24T05:49:07.986Z,8.28
2023-05-24T05:51:34.426Z,8.44
2023-05-24T05:54:01.472Z,8.45
2023-05-24T05:56:28.611Z,8.34
2023-05-24T05:58:55.052Z,8.27
2023-05-24T06:01:21.563Z,8.07
2023-05-24T06:03:48.599Z,8.64
2023-05-24T06:06:15.724Z,9.17
2023-05-24T06:08:42.328Z,9.34
2023-05-24T06:11:08.820Z,9.43
2023-05-24T06:13:35.396Z,9.32
2023-05-24T06:16:01.881Z,9.36
2023-05-24T06:18:30.489Z,9.50
2023-05-24T06:20:57.161Z,9.37
2023-05-24T06:23:23.620Z,9.16
2023-05-24T06:25:50.677Z,9.53
2023-05-24T06:28:17.266Z,9.81
2023-05-24T06:30:44.085Z,9.95
2023-05-24T06:33:11.070Z,10.19
2023-05-24T06:35:37.623Z,9.90
2023-05-24T06:38:04.467Z,9.55
2023-05-24T06:40:30.941Z,9.22
2023-05-24T06:42:58.700Z,9.17
2023-05-24T06:45:25.216Z,9.39
2023-05-24T06:47:51.785Z,9.41
2023-05-24T06:50:18.951Z,9.29
2023-05-24T06:52:45.597Z,9.32
2023-05-24T06:55:12.044Z,9.43
2023-05-24T06:57:38.870Z,9.40
2023-05-24T07:00:12.540Z,9.53
2023-05-24T07:02:39.746Z,9.50
2023-05-24T07:05:11.983Z,9.49
2023-05-24T07:07:43.368Z,9.64
2023-05-24T07:10:12.084Z,10.01
2023-05-24T07:12:38.919Z,10.08
2023-05-24T07:15:07.100Z,10.19
2023-05-24T07:17:33.651Z,10.32
2023-05-24T07:20:01.757Z,10.32
2023-05-24T07:22:30.023Z,10.67
2023-05-24T07:24:56.594Z,10.63
2023-05-24T07:27:23.387Z,10.60
2023-05-24T07:29:50.334Z,10.50
2023-05-24T07:32:16.997Z,10.67
2023-05-24T07:34:43.941Z,10.94
2023-05-24T07:37:10.421Z,10.47
2023-05-24T07:39:38.348Z,10.25
2023-05-24T07:42:05.592Z,10.45
2023-05-24T07:44:32.319Z,10.78
2023-05-24T07:46:59.205Z,10.55
2023-05-24T07:49:26.196Z,11.07
2023-05-24T07:51:53.449Z,10.94
2023-05-24T07:54:20.050Z,11.24
2023-05-24T07:56:47.622Z,11.25
2023-05-24T07:59:14.073Z,11.36
2023-05-24T08:01:41.760Z,11.41
2023-05-24T08:04:10.379Z,11.38
2023-05-24T08:06:36.991Z,11.19
2023-05-24T08:09:05.144Z,11.26
2023-05-24T08:11:31.562Z,11.35
2023-05-24T08:13:58.144Z,11.31
2023-05-24T08:16:24.816Z,11.20
2023-05-24T08:18:53.368Z,11.04
2023-05-24T08:21:21.903Z,11.08
2023-05-24T08:23:48.419Z,11.12
2023-05-24T08:26:16.643Z,11.33
2023-05-24T08:28:43.074Z,11.44
2023-05-24T08:31:09.964Z,11.71
2023-05-24T08:33:38.285Z,12.18
2023-05-24T08:36:04.851Z,12.15
2023-05-24T08:38:31.268Z,11.95
2023-05-24T08:41:00.408Z,12.03
2023-05-24T08:43:29.148Z,11.87
2023-05-24T08:45:59.075Z,12.07
2023-05-24T08:48:26.946Z,11.75
2023-05-24T08:50:53.646Z,11.56
2023-05-24T08:53:22.645Z,11.86
2023-05-24T08:55:53.530Z,12.04
2023-05-24T08:58:20.717Z,12.24
2023-05-24T09:00:47.534Z,12.06
2023-05-24T09:03:14.186Z,12.28
2023-05-24T09:05:41.931Z,12.24
2023-05-24T09:08:10.433Z,12.05
2023-05-24T09:10:49.421Z,12.19
2023-05-24T09:13:23.948Z,12.26
2023-05-24T09:15:50.773Z,12.32
2023-05-24T09:18:17.318Z,12.34
2023-05-24T09:20:44.059Z,12.40
2023-05-24T09:23:12.552Z,12.84
2023-05-24T09:25:44.728Z,12.86
2023-05-24T09:28:14.679Z,12.83
2023-05-24T09:30:46.145Z,12.87
2023-05-24T09:33:13.405Z,12.80
2023-05-24T09:35:44.840Z,12.76
2023-05-24T09:38:18.795Z,12.64
2023-05-24T09:40:45.889Z,12.47
2023-05-24T09:43:12.533Z,12.44
2023-05-24T09:45:49.528Z,12.33
2023-05-24T09:48:20.146Z,12.25
2023-05-24T09:51:04.676Z,12.37
2023-05-24T09:53:33.942Z,12.14
2023-05-24T09:56:01.813Z,12.35
2023-05-24T09:58:33.980Z,12.42
2023-05-24T10:01:08.329Z,12.78
2023-05-24T10:03:36.235Z,13.01
2023-05-24T10:06:11.302Z,13.29
2023-05-24T10:08:38.134Z,13.42
2023-05-24T10:11:05.643Z,13.44
2023-05-24T10:13:35.731Z,13.47
2023-05-24T10:16:05.857Z,13.62
2023-05-24T10:18:32.779Z,13.31
2023-05-24T10:21:02.127Z,13.26
2023-05-24T10:23:31.412Z,13.10
2023-05-24T10:26:10.279Z,13.01
2023-05-24T10:28:55.830Z,13.08
2023-05-24T10:31:27.753Z,13.03
2023-05-24T10:34:06.519Z,13.06
2023-05-24T10:36:35.433Z,13.39
2023-05-24T10:39:02.181Z,13.81
2023-05-24T10:41:29.045Z,14.09
2023-05-24T10:44:09.275Z,14.36
2023-05-24T10:46:38.147Z,14.38
2023-05-24T10:49:06.913Z,14.38
2023-05-24T10:51:41.128Z,13.71
2023-05-24T10:54:16.698Z,13.76
2023-05-24T10:56:49.287Z,13.60
2023-05-24T10:59:23.106Z,13.39
2023-05-24T11:02:00.687Z,13.55
2023-05-24T11:04:31.830Z,13.72
2023-05-24T11:07:03.928Z,13.81
2023-05-24T11:09:31.811Z,13.76
2023-05-24T11:12:07.985Z,13.51
2023-05-24T11:14:39.349Z,13.90
2023-05-24T11:17:07.990Z,14.23
2023-05-24T11:19:39.037Z,13.91
2023-05-24T11:22:09.506Z,13.66
2023-05-24T11:24:36.874Z,13.62
2023-05-24T11:27:03.961Z,13.61
2023-05-24T11:29:30.597Z,13.71
2023-05-24T11:32:08.017Z,13.96
2023-05-24T11:34:35.320Z,14.01
2023-05-24T11:37:03.140Z,14.15
2023-05-24T11:39:34.845Z,14.62
2023-05-24T11:42:04.963Z,15.51
2023-05-24T11:44:32.674Z,15.20
2023-05-24T11:47:03.339Z,14.08
2023-05-24T11:49:29.845Z,13.60
2023-05-24T11:51:57.846Z,13.52
2023-05-24T11:54:25.835Z,13.50
2023-05-24T11:56:53.373Z,13.31
2023-05-24T11:59:27.405Z,13.25
2023-05-24T12:02:05.520Z,13.11
2023-05-24T12:04:33.512Z,13.12
2023-05-24T12:07:01.366Z,13.16
2023-05-24T12:09:28.526Z,13.12
2023-05-24T12:11:55.801Z,13.18
2023-05-24T12:14:30.620Z,12.95
2023-05-24T12:16:58.010Z,13.04
2023-05-24T12:19:32.994Z,12.93
2023-05-24T12:22:01.995Z,13.00
2023-05-24T12:24:31.329Z,12.92
2023-05-24T12:27:02.249Z,12.90
2023-05-24T12:29:40.502Z,12.90
2023-05-24T12:32:12.641Z,12.91
2023-05-24T12:34:44.703Z,12.91
2023-05-24T12:37:12.462Z,12.72
2023-05-24T12:39:42.195Z,12.81
2023-05-24T12:42:10.474Z,12.88
2023-05-24T12:44:38.613Z,12.88
2023-05-24T12:47:07.714Z,12.96
2023-05-24T12:49:34.581Z,13.27
2023-05-24T12:52:04.139Z,13.37
2023-05-24T12:54:31.141Z,13.12
2023-05-24T12:57:00.048Z,13.14
2023-05-24T12:59:29.062Z,13.23
2023-05-24T13:01:56.211Z,13.39
2023-05-24T13:04:26.104Z,13.33
2023-05-24T13:06:52.735Z,13.06
2023-05-24T13:09:21.817Z,13.00
2023-05-24T13:11:48.770Z,13.04
2023-05-24T13:14:17.153Z,13.00
2023-05-24T13:16:44.171Z,13.26
2023-05-24T13:19:11.703Z,13.47
2023-05-24T13:21:39.058Z,13.39
2023-05-24T13:24:06.532Z,13.32
2023-05-24T13:26:37.150Z,13.32
2023-05-24T13:31:36.296Z,13.35
2023-05-24T13:34:02.890Z,13.50
2023-05-24T13:36:29.412Z,13.73
2023-05-24T13:39:12.782Z,13.73
2023-05-24T13:41:42.402Z,13.95
2023-05-24T13:44:10.152Z,14.11
2023-05-24T13:46:37.322Z,14.28
2023-05-24T13:49:04.637Z,14.09
2023-05-24T13:51:31.302Z,14.19
2023-05-24T13:53:57.967Z,14.27
2023-05-24T13:56:24.902Z,14.00
2023-05-24T13:58:52.817Z,14.13
2023-05-24T14:01:19.468Z,13.73
2023-05-24T14:03:46.218Z,13.86
2023-05-24T14:06:12.900Z,14.10
2023-05-24T14:08:39.860Z,14.26
2023-05-24T14:11:06.516Z,14.12
2023-05-24T14:14:32.928Z,14.16
2023-05-24T14:16:20.195Z,14.01
2023-05-24T14:18:48.940Z,14.03
2023-05-24T14:21:15.647Z,13.77
2023-05-24T14:23:42.678Z,14.07
2023-05-24T14:26:09.320Z,14.32
2023-05-24T14:28:35.741Z,14.30
2023-05-24T14:31:02.474Z,14.05
2023-05-24T14:33:29.314Z,13.93
2023-05-24T14:35:55.777Z,14.00
2023-05-24T14:38:23.872Z,14.08
2023-05-24T14:40:51.544Z,13.97
2023-05-24T14:43:18.126Z,13.94
2023-05-24T14:45:44.974Z,14.23
2023-05-24T14:48:12.540Z,14.56
2023-05-24T14:50:40.637Z,15.11
2023-05-24T14:53:12.154Z,15.42
2023-05-24T14:55:41.285Z,15.44
2023-05-24T14:58:12.436Z,15.06
2023-05-24T15:00:40.320Z,14.69
2023-05-24T15:03:08.411Z,14.44
2023-05-24T15:05:36.671Z,14.28
2023-05-24T15:08:05.368Z,14.09
2023-05-24T15:10:31.923Z,14.15
2023-05-24T15:12:58.370Z,14.59
2023-05-24T15:15:25.482Z,14.99
2023-05-24T15:17:52.280Z,14.87
2023-05-24T15:20:19.740Z,14.77
2023-05-24T15:22:46.553Z,14.48
2023-05-24T15:25:13.109Z,14.70
2023-05-24T15:27:39.560Z,14.32
2023-05-24T15:30:07.647Z,14.32
2023-05-24T15:32:34.299Z,14.34
2023-05-24T15:35:01.165Z,14.07
2023-05-24T15:37:27.824Z,14.27
2023-05-24T15:39:54.494Z,14.39
2023-05-24T15:42:22.074Z,14.45
2023-05-24T15:44:48.537Z,14.21
2023-05-24T15:47:15.037Z,13.84
2023-05-24T15:49:41.983Z,13.60
2023-05-24T15:52:08.725Z,13.44
2023-05-24T15:54:35.549Z,13.57
2023-05-24T15:57:02.577Z,13.26
2023-05-24T15:59:29.432Z,13.36
2023-05-24T16:01:56.494Z,13.35
2023-05-24T16:04:23.402Z,13.39
2023-05-24T16:06:49.923Z,13.34
2023-05-24T16:09:16.457Z,13.33
2023-05-24T16:11:43.285Z,13.26
2023-05-24T16:14:10.313Z,13.37
2023-05-24T16:16:37.905Z,13.40
2023-05-24T16:19:04.524Z,13.49
2023-05-24T16:21:33.114Z,13.39
2023-05-24T16:24:01.903Z,13.39
2023-05-24T16:26:30.897Z,13.53
2023-05-24T16:28:57.825Z,13.81
2023-05-24T16:31:24.703Z,13.58
2023-05-24T16:33:51.252Z,13.64
2023-05-24T16:36:17.703Z,13.44
2023-05-24T16:38:45.388Z,13.17
2023-05-24T16:41:12.070Z,13.04
2023-05-24T16:43:38.506Z,13.00
2023-05-24T16:46:05.778Z,12.97
2023-05-24T16:48:32.651Z,12.86
2023-05-24T16:51:00.164Z,12.91
2023-05-24T16:53:27.624Z,12.88
2023-05-24T16:55:56.104Z,12.74
2023-05-24T16:58:30.028Z,12.63
2023-05-24T17:00:56.758Z,12.59
2023-05-24T17:03:28.617Z,12.52
2023-05-24T17:05:58.049Z,12.45
2023-05-24T17:08:27.479Z,12.50
2023-05-24T17:10:58.596Z,12.59
2023-05-24T17:13:27.845Z,12.59
2023-05-24T17:15:55.285Z,12.57
2023-05-24T17:18:29.637Z,12.51
2023-05-24T17:21:05.763Z,12.34
2023-05-24T17:23:34.164Z,12.33
2023-05-24T17:26:02.490Z,12.37
2023-05-24T17:28:30.002Z,12.36
2023-05-24T17:30:57.974Z,12.38
2023-05-24T17:33:27.074Z,12.35
2023-05-24T17:35:57.179Z,12.46
2023-05-24T17:38:24.892Z,12.41
2023-05-24T17:40:57.237Z,12.46
2023-05-24T17:43:34.672Z,12.38
2023-05-24T17:46:04.125Z,12.36
2023-05-24T17:48:31.868Z,12.30
2023-05-24T17:51:02.092Z,12.34
2023-05-24T17:53:31.796Z,12.37
2023-05-24T17:55:59.446Z,12.36
2023-05-24T17:58:26.056Z,12.47
2023-05-24T18:00:52.740Z,12.46
2023-05-24T18:03:19.734Z,12.49
2023-05-24T18:05:46.296Z,12.48
2023-05-24T18:08:12.867Z,12.62
2023-05-24T18:10:39.296Z,12.48
2023-05-24T18:13:07.682Z,12.53
2023-05-24T18:15:34.568Z,12.60
2023-05-24T18:18:01.197Z,12.40
2023-05-24T18:20:28.221Z,12.47
2023-05-24T18:22:54.707Z,12.41
2023-05-24T18:25:21.458Z,12.31
2023-05-24T18:27:47.888Z,12.28
2023-05-24T18:30:14.841Z,12.24
2023-05-24T18:32:49.006Z,12.16
2023-05-24T18:35:28.105Z,12.18
2023-05-24T18:37:55.046Z,12.15
2023-05-24T18:40:23.333Z,12.01
2023-05-24T18:42:53.134Z,12.08
2023-05-24T18:45:19.587Z,12.01
2023-05-24T18:47:46.258Z,11.91
2023-05-24T18:50:12.951Z,11.81
2023-05-24T18:52:39.362Z,11.85
2023-05-24T18:55:10.482Z,11.74
2023-05-24T18:57:37.647Z,11.74
2023-05-24T19:00:06.320Z,11.48
2023-05-24T19:02:38.638Z,11.36
2023-05-24T19:05:06.722Z,11.39
2023-05-24T19:07:34.815Z,11.30
2023-05-24T19:10:01.613Z,11.23
2023-05-24T19:12:28.756Z,11.16
2023-05-24T19:14:55.361Z,11.05
2023-05-24T19:17:22.339Z,10.96
2023-05-24T19:19:49.088Z,10.88
2023-05-24T19:22:16.452Z,10.73
2023-05-24T19:24:43.370Z,10.60
2023-05-24T19:27:09.973Z,10.44
2023-05-24T19:29:37.766Z,10.30
2023-05-24T19:32:05.019Z,10.12
2023-05-24T19:34:33.292Z,9.92
2023-05-24T19:36:59.879Z,9.73
2023-05-24T19:39:26.651Z,9.67
2023-05-24T19:41:53.128Z,9.67
2023-05-24T19:44:19.586Z,9.63
2023-05-24T19:46:46.176Z,9.55
2023-05-24T19:49:12.679Z,9.44
2023-05-24T19:51:39.314Z,9.35
2023-05-24T19:54:09.098Z,9.34
2023-05-24T19:56:36.145Z,9.36
2023-05-24T19:59:02.655Z,9.31
2023-05-24T20:01:29.855Z,9.19
2023-05-24T20:03:56.435Z,8.99
2023-05-24T20:06:22.933Z,8.87
2023-05-24T20:08:49.883Z,8.88
2023-05-24T20:11:16.305Z,8.88
2023-05-24T20:13:43.160Z,8.86
2023-05-24T20:16:09.864Z,8.88
2023-05-24T20:18:36.872Z,8.89
2023-05-24T20:21:03.883Z,8.81
2023-05-24T20:23:30.846Z,8.70
2023-05-24T20:25:57.810Z,8.67
2023-05-24T20:28:30.619Z,8.57
2023-05-24T20:30:58.611Z,8.40
2023-05-24T20:33:25.319Z,8.34
2023-05-24T20:35:53.855Z,8.27
2023-05-24T20:38:20.724Z,8.16
2023-05-24T20:40:47.687Z,8.14
2023-05-24T20:43:14.145Z,8.07
2023-05-24T20:45:40.726Z,8.10
2023-05-24T20:48:07.522Z,7.99
2023-05-24T20:50:33.979Z,7.87
2023-05-24T20:53:00.456Z,7.86
2023-05-24T20:55:27.203Z,7.82
2023-05-24T20:57:53.852Z,7.75
2023-05-24T21:00:20.376Z,7.76
2023-05-24T21:02:47.009Z,7.72
2023-05-24T21:05:13.652Z,7.67
2023-05-24T21:07:40.315Z,7.65
2023-05-24T21:10:07.757Z,7.66
2023-05-24T21:12:34.261Z,7.55
2023-05-24T21:15:00.748Z,7.45
2023-05-24T21:17:27.785Z,7.37
2023-05-24T21:19:54.315Z,7.21
2023-05-24T21:22:21.241Z,7.08
2023-05-24T21:24:47.786Z,6.93
2023-05-24T21:27:14.561Z,6.80
2023-05-24T21:29:42.067Z,6.73
2023-05-24T21:32:09.036Z,6.72
2023-05-24T21:34:38.675Z,6.74
2023-05-24T21:37:05.352Z,6.75
2023-05-24T21:39:32.897Z,6.78
2023-05-24T21:41:59.413Z,6.81
2023-05-24T21:44:25.982Z,6.83
2023-05-24T21:46:52.917Z,6.82
2023-05-24T21:49:20.068Z,6.83
2023-05-24T21:51:46.915Z,6.84
2023-05-24T21:54:13.808Z,6.83
2023-05-24T21:56:40.316Z,6.78
2023-05-24T21:59:07.155Z,6.66
2023-05-24T22:01:33.638Z,6.57
2023-05-24T22:04:00.481Z,6.53
2023-05-24T22:06:27.204Z,6.51
2023-05-24T22:08:53.804Z,6.50
2023-05-24T22:11:20.659Z,6.49
2023-05-24T22:13:47.109Z,6.50
2023-05-24T22:16:13.648Z,6.50
2023-05-24T22:18:40.294Z,6.45
2023-05-24T22:21:06.786Z,6.32
2023-05-24T22:23:33.859Z,6.20
2023-05-24T22:26:00.307Z,6.13
2023-05-24T22:28:26.748Z,6.05
2023-05-24T22:30:53.716Z,6.00
2023-05-24T22:33:20.187Z,6.01
2023-05-24T22:35:46.777Z,6.07
2023-05-24T22:38:13.441Z,6.11
2023-05-24T22:40:42.064Z,6.18
2023-05-24T22:43:08.669Z,6.16
2023-05-24T22:45:35.350Z,6.19
2023-05-24T22:48:03.460Z,6.19
2023-05-24T22:50:30.518Z,6.16
2023-05-24T22:52:58.878Z,6.22
2023-05-24T22:55:25.425Z,6.20
2023-05-24T22:57:52.354Z,6.20
2023-05-24T23:00:18.986Z,6.12
2023-05-24T23:02:46.794Z,6.02
2023-05-24T23:05:14.252Z,5.93
2023-05-24T23:07:40.778Z,5.95
2023-05-24T23:10:09.540Z,5.96
2023-05-24T23:12:36.324Z,5.91
2023-05-24T23:15:03.400Z,5.90
2023-05-24T23:17:30.001Z,5.92
2023-05-24T23:19:56.590Z,5.91
2023-05-24T23:22:24.044Z,5.84
2023-05-24T23:24:51.089Z,5.85
2023-05-24T23:27:18.200Z,5.87
2023-05-24T23:29:44.682Z,5.87
2023-05-24T23:32:11.692Z,5.87
2023-05-24T23:34:38.189Z,5.84
2023-05-24T23:37:05.590Z,5.81
2023-05-24T23:39:32.157Z,5.68
2023-05-24T23:41:58.679Z,5.54
2023-05-24T23:44:26.038Z,5.48
2023-05-24T23:46:53.209Z,5.40
2023-05-24T23:49:20.455Z,5.38
2023-05-24T23:51:47.297Z,5.38
2023-05-24T23:54:18.955Z,5.39
2023-05-24T23:56:45.798Z,5.40
2023-05-24T23:59:12.784Z,5.38
